Terminal Aerodrome Forecast
Issued by NWS Louisville, KY

Home | Current Version | Previous Version | Text Only | Print | Product List | Glossary On
Versions: 1 2 3 4 5 6 7 8 9 10 11 12 13 14 15
927
FTUS43 KLMK 261121
TAFLEX
TAF
KLEX 261121Z 2612/2712 17005KT P6SM FEW070 SCT150
     FM261400 30010G17KT P6SM VCSH BKN035
      TEMPO 2617/2620 5SM -SHRA BKN025
     FM262100 29010KT P6SM SCT090
     FM270000 28006KT P6SM SKC
     FM270600 VRB04KT P6SM SKC=

USA.gov is the U.S. government's official web portal to all federal, state and local government web resources and services.